Central City, Colorado
Current Conditions -  °F | °C
As of 7:35 AM on Friday 28 Nov 2014 (Local Time) from KBDU Reporting Station
Clear Clear  
Wind Chill: 52°   Ceiling: Unl
Heat Index: 52°   Visibility: 10mi
Dew Point: 14°   Wind: 9mph
Humidity: 22%   Direction: 100°E
Pressure: 29.91"   Gusts: NA
Location:  39.8°N, 105.51°W
Report Text: KBDU 281435Z AUTO 10008KT 10SM CLR 11/M10 A2991 RMK AO2
Loading
Personal Weather Stations






























Interactive Weather Map New forecast layout! Learn more

10-Day Weather Forecast

Advertisements
Track Severe Weather on mobile